sensor_id;sensor_type;location;lat;lon;timestamp;temperature;humidity
20487;DHT22;10402;49.012;8.370;2024-03-22T00:00:03;14.20;68.00
20487;DHT22;10402;49.012;8.370;2024-03-22T00:02:28;14.20;68.00
20487;DHT22;10402;49.012;8.370;2024-03-22T00:04:54;14.20;67.90
20487;DHT22;10402;49.012;8.370;2024-03-22T00:07:19;14.10;67.80
20487;DHT22;10402;49.012;8.370;2024-03-22T00:09:45;14.10;68.00
20487;DHT22;10402;49.012;8.370;2024-03-22T00:12:10;14.10;68.30
20487;DHT22;10402;49.012;8.370;2024-03-22T00:14:36;14.00;68.20
20487;DHT22;10402;49.012;8.370;2024-03-22T00:17:01;14.00;68.50
20487;DHT22;10402;49.012;8.370;2024-03-22T00:19:27;14.00;69.00
20487;DHT22;10402;49.012;8.370;2024-03-22T00:21:52;13.90;69.00
20487;DHT22;10402;49.012;8.370;2024-03-22T00:24:18;13.90;69.20
20487;DHT22;10402;49.012;8.370;2024-03-22T00:26:43;13.80;69.30
20487;DHT22;10402;49.012;8.370;2024-03-22T00:29:09;13.80;69.50
20487;DHT22;10402;49.012;8.370;2024-03-22T00:31:34;13.80;69.60
20487;DHT22;10402;49.012;8.370;2024-03-22T00:34:00;13.80;69.90
20487;DHT22;10402;49.012;8.370;2024-03-22T00:36:25;13.70;69.80
20487;DHT22;10402;49.012;8.370;2024-03-22T00:38:51;13.70;70.70
20487;DHT22;10402;49.012;8.370;2024-03-22T00:41:16;13.70;70.60
20487;DHT22;10402;49.012;8.370;2024-03-22T00:43:42;13.70;70.70
20487;DHT22;10402;49.012;8.370;2024-03-22T00:46:07;13.60;70.90
20487;DHT22;10402;49.012;8.370;2024-03-22T00:48:33;13.60;71.50
20487;DHT22;10402;49.012;8.370;2024-03-22T00:51:00;13.60;71.30
20487;DHT22;10402;49.012;8.370;2024-03-22T00:53:26;13.60;71.30
20487;DHT22;10402;49.012;8.370;2024-03-22T00:55:51;13.50;71.30
20487;DHT22;10402;49.012;8.370;2024-03-22T00:58:20;13.50;71.30
20487;DHT22;10402;49.012;8.370;2024-03-22T01:00:46;13.50;71.30
20487;DHT22;10402;49.012;8.370;2024-03-22T01:03:12;13.40;71.30
20487;DHT22;10402;49.012;8.370;2024-03-22T01:05:38;13.30;71.50
20487;DHT22;10402;49.012;8.370;2024-03-22T01:08:05;13.30;71.80
20487;DHT22;10402;49.012;8.370;2024-03-22T01:10:31;13.30;71.90
20487;DHT22;10402;49.012;8.370;2024-03-22T01:12:56;13.30;72.00
20487;DHT22;10402;49.012;8.370;2024-03-22T01:15:22;13.20;72.00
20487;DHT22;10402;49.012;8.370;2024-03-22T01:17:47;13.20;72.50
20487;DHT22;10402;49.012;8.370;2024-03-22T01:20:13;13.20;72.70
20487;DHT22;10402;49.012;8.370;2024-03-22T01:22:38;13.10;72.60
20487;DHT22;10402;49.012;8.370;2024-03-22T01:25:05;13.10;72.70
20487;DHT22;10402;49.012;8.370;2024-03-22T01:27:31;13.10;73.00
20487;DHT22;10402;49.012;8.370;2024-03-22T01:29:56;13.10;73.00
20487;DHT22;10402;49.012;8.370;2024-03-22T01:32:22;13.00;73.00
20487;DHT22;10402;49.012;8.370;2024-03-22T01:34:47;13.10;73.10
20487;DHT22;10402;49.012;8.370;2024-03-22T01:37:13;13.10;73.50
20487;DHT22;10402;49.012;8.370;2024-03-22T01:39:38;13.00;73.90
20487;DHT22;10402;49.012;8.370;2024-03-22T01:42:04;13.00;73.90
20487;DHT22;10402;49.012;8.370;2024-03-22T01:44:31;13.00;73.90
20487;DHT22;10402;49.012;8.370;2024-03-22T01:46:58;12.90;73.80
20487;DHT22;10402;49.012;8.370;2024-03-22T01:49:25;13.00;73.90
20487;DHT22;10402;49.012;8.370;2024-03-22T01:51:51;13.00;74.00
20487;DHT22;10402;49.012;8.370;2024-03-22T01:54:17;13.00;74.10
20487;DHT22;10402;49.012;8.370;2024-03-22T01:56:44;13.00;74.20
20487;DHT22;10402;49.012;8.370;2024-03-22T01:59:10;12.90;74.30
20487;DHT22;10402;49.012;8.370;2024-03-22T02:01:36;12.90;74.50
20487;DHT22;10402;49.012;8.370;2024-03-22T02:04:02;12.90;74.80
20487;DHT22;10402;49.012;8.370;2024-03-22T02:06:27;12.90;74.90
20487;DHT22;10402;49.012;8.370;2024-03-22T02:08:53;12.90;74.90
20487;DHT22;10402;49.012;8.370;2024-03-22T02:11:19;12.90;74.90
20487;DHT22;10402;49.012;8.370;2024-03-22T02:13:45;12.90;75.20
20487;DHT22;10402;49.012;8.370;2024-03-22T02:16:10;12.90;75.30
20487;DHT22;10402;49.012;8.370;2024-03-22T02:18:36;12.90;75.20
20487;DHT22;10402;49.012;8.370;2024-03-22T02:21:02;13.00;75.40
20487;DHT22;10402;49.012;8.370;2024-03-22T02:25:58;13.00;75.60
20487;DHT22;10402;49.012;8.370;2024-03-22T02:28:23;13.00;75.60
20487;DHT22;10402;49.012;8.370;2024-03-22T02:30:49;12.90;75.80
20487;DHT22;10402;49.012;8.370;2024-03-22T02:33:14;13.00;76.10
20487;DHT22;10402;49.012;8.370;2024-03-22T02:35:40;12.90;76.10
20487;DHT22;10402;49.012;8.370;2024-03-22T02:38:05;13.00;76.70
20487;DHT22;10402;49.012;8.370;2024-03-22T02:40:31;13.00;76.60
20487;DHT22;10402;49.012;8.370;2024-03-22T02:42:56;13.00;76.70
20487;DHT22;10402;49.012;8.370;2024-03-22T02:45:22;13.00;76.50
20487;DHT22;10402;49.012;8.370;2024-03-22T02:47:47;13.00;76.50
20487;DHT22;10402;49.012;8.370;2024-03-22T02:50:13;13.00;76.60
20487;DHT22;10402;49.012;8.370;2024-03-22T02:52:38;13.00;76.50
20487;DHT22;10402;49.012;8.370;2024-03-22T02:55:04;12.90;76.40
20487;DHT22;10402;49.012;8.370;2024-03-22T02:57:29;12.90;76.60
20487;DHT22;10402;49.012;8.370;2024-03-22T02:59:55;12.90;76.60
20487;DHT22;10402;49.012;8.370;2024-03-22T03:02:21;12.90;76.80
20487;DHT22;10402;49.012;8.370;2024-03-22T03:04:46;12.80;76.60
20487;DHT22;10402;49.012;8.370;2024-03-22T03:07:12;12.80;76.60
20487;DHT22;10402;49.012;8.370;2024-03-22T03:09:37;12.80;76.80
20487;DHT22;10402;49.012;8.370;2024-03-22T03:12:03;12.70;76.60
20487;DHT22;10402;49.012;8.370;2024-03-22T03:14:28;12.70;76.50
20487;DHT22;10402;49.012;8.370;2024-03-22T03:16:54;12.70;76.90
20487;DHT22;10402;49.012;8.370;2024-03-22T03:19:19;12.70;77.10
20487;DHT22;10402;49.012;8.370;2024-03-22T03:21:45;12.60;77.00
20487;DHT22;10402;49.012;8.370;2024-03-22T03:24:10;12.60;77.20
20487;DHT22;10402;49.012;8.370;2024-03-22T03:26:36;12.50;77.30
20487;DHT22;10402;49.012;8.370;2024-03-22T03:29:01;12.50;77.30
20487;DHT22;10402;49.012;8.370;2024-03-22T03:31:27;12.50;77.40
20487;DHT22;10402;49.012;8.370;2024-03-22T03:33:52;12.50;77.50
20487;DHT22;10402;49.012;8.370;2024-03-22T03:36:18;12.50;77.70
20487;DHT22;10402;49.012;8.370;2024-03-22T03:38:43;12.50;77.80
20487;DHT22;10402;49.012;8.370;2024-03-22T03:41:09;12.50;78.00
20487;DHT22;10402;49.012;8.370;2024-03-22T03:43:34;12.40;78.10
20487;DHT22;10402;49.012;8.370;2024-03-22T03:46:00;12.40;78.40
20487;DHT22;10402;49.012;8.370;2024-03-22T03:48:25;12.40;78.50
20487;DHT22;10402;49.012;8.370;2024-03-22T03:50:54;12.50;78.90
20487;DHT22;10402;49.012;8.370;2024-03-22T03:53:21;12.50;78.80
20487;DHT22;10402;49.012;8.370;2024-03-22T03:55:46;12.50;78.50
20487;DHT22;10402;49.012;8.370;2024-03-22T03:58:12;12.50;78.60
20487;DHT22;10402;49.012;8.370;2024-03-22T04:00:38;12.40;78.50
20487;DHT22;10402;49.012;8.370;2024-03-22T04:03:03;12.50;78.80
20487;DHT22;10402;49.012;8.370;2024-03-22T04:05:29;12.50;78.70
20487;DHT22;10402;49.012;8.370;2024-03-22T04:07:54;12.50;78.90
20487;DHT22;10402;49.012;8.370;2024-03-22T04:10:20;12.50;78.40
20487;DHT22;10402;49.012;8.370;2024-03-22T04:12:45;12.50;78.30
20487;DHT22;10402;49.012;8.370;2024-03-22T04:15:11;12.50;78.30
20487;DHT22;10402;49.012;8.370;2024-03-22T04:17:36;12.50;78.60
20487;DHT22;10402;49.012;8.370;2024-03-22T04:20:02;12.50;78.60
20487;DHT22;10402;49.012;8.370;2024-03-22T04:22:29;12.50;78.50
20487;DHT22;10402;49.012;8.370;2024-03-22T04:24:55;12.50;78.60
20487;DHT22;10402;49.012;8.370;2024-03-22T04:27:20;12.40;78.40
20487;DHT22;10402;49.012;8.370;2024-03-22T04:29:49;12.40;78.50
20487;DHT22;10402;49.012;8.370;2024-03-22T04:32:15;12.50;78.60
20487;DHT22;10402;49.012;8.370;2024-03-22T04:34:44;12.50;78.50
20487;DHT22;10402;49.012;8.370;2024-03-22T04:37:10;12.50;78.50
20487;DHT22;10402;49.012;8.370;2024-03-22T04:39:37;12.40;78.50
20487;DHT22;10402;49.012;8.370;2024-03-22T04:42:03;12.50;79.00
20487;DHT22;10402;49.012;8.370;2024-03-22T04:44:29;12.50;78.80
20487;DHT22;10402;49.012;8.370;2024-03-22T04:46:55;12.40;78.70
20487;DHT22;10402;49.012;8.370;2024-03-22T04:49:20;12.40;79.20
20487;DHT22;10402;49.012;8.370;2024-03-22T04:51:46;12.40;78.50
20487;DHT22;10402;49.012;8.370;2024-03-22T04:54:12;12.50;78.40
20487;DHT22;10402;49.012;8.370;2024-03-22T04:56:39;12.40;78.30
20487;DHT22;10402;49.012;8.370;2024-03-22T04:59:05;12.40;78.30
20487;DHT22;10402;49.012;8.370;2024-03-22T05:01:30;12.40;78.30
20487;DHT22;10402;49.012;8.370;2024-03-22T05:03:56;12.40;78.40
20487;DHT22;10402;49.012;8.370;2024-03-22T05:06:21;12.40;78.40
20487;DHT22;10402;49.012;8.370;2024-03-22T05:08:47;12.40;78.40
20487;DHT22;10402;49.012;8.370;2024-03-22T05:11:12;12.40;78.70
20487;DHT22;10402;49.012;8.370;2024-03-22T05:13:38;12.40;78.90
20487;DHT22;10402;49.012;8.370;2024-03-22T05:16:06;12.40;79.00
20487;DHT22;10402;49.012;8.370;2024-03-22T05:18:31;12.40;79.00
20487;DHT22;10402;49.012;8.370;2024-03-22T05:20:57;12.40;79.00
20487;DHT22;10402;49.012;8.370;2024-03-22T05:23:22;12.40;79.00
20487;DHT22;10402;49.012;8.370;2024-03-22T05:25:48;12.40;79.00
20487;DHT22;10402;49.012;8.370;2024-03-22T05:28:13;12.40;79.10
20487;DHT22;10402;49.012;8.370;2024-03-22T05:30:39;12.40;79.10
20487;DHT22;10402;49.012;8.370;2024-03-22T05:33:04;12.40;79.10
20487;DHT22;10402;49.012;8.370;2024-03-22T05:35:30;12.40;79.20
20487;DHT22;10402;49.012;8.370;2024-03-22T05:37:56;12.40;79.30
20487;DHT22;10402;49.012;8.370;2024-03-22T05:40:21;12.40;79.30
20487;DHT22;10402;49.012;8.370;2024-03-22T05:42:47;12.40;79.30
20487;DHT22;10402;49.012;8.370;2024-03-22T05:45:13;12.40;79.40
20487;DHT22;10402;49.012;8.370;2024-03-22T05:47:38;12.40;79.30
20487;DHT22;10402;49.012;8.370;2024-03-22T05:50:04;12.40;79.40
20487;DHT22;10402;49.012;8.370;2024-03-22T05:52:33;12.40;79.30
20487;DHT22;10402;49.012;8.370;2024-03-22T05:54:58;12.40;79.30
20487;DHT22;10402;49.012;8.370;2024-03-22T05:57:24;12.40;79.40
20487;DHT22;10402;49.012;8.370;2024-03-22T05:59:50;12.40;79.50
20487;DHT22;10402;49.012;8.370;2024-03-22T06:02:15;12.40;79.50
20487;DHT22;10402;49.012;8.370;2024-03-22T06:04:42;12.40;79.50
20487;DHT22;10402;49.012;8.370;2024-03-22T06:07:07;12.50;79.50
20487;DHT22;10402;49.012;8.370;2024-03-22T06:09:33;12.50;79.40
20487;DHT22;10402;49.012;8.370;2024-03-22T06:12:15;12.50;79.60
20487;DHT22;10402;49.012;8.370;2024-03-22T06:14:44;12.50;79.50
20487;DHT22;10402;49.012;8.370;2024-03-22T06:17:10;12.50;80.10
20487;DHT22;10402;49.012;8.370;2024-03-22T06:19:36;12.50;79.30
20487;DHT22;10402;49.012;8.370;2024-03-22T06:22:02;12.60;79.40
20487;DHT22;10402;49.012;8.370;2024-03-22T06:24:28;12.60;79.40
20487;DHT22;10402;49.012;8.370;2024-03-22T06:26:54;12.60;79.50
20487;DHT22;10402;49.012;8.370;2024-03-22T06:29:19;12.60;79.80
20487;DHT22;10402;49.012;8.370;2024-03-22T06:31:45;12.60;79.70
20487;DHT22;10402;49.012;8.370;2024-03-22T06:34:10;12.60;79.90
20487;DHT22;10402;49.012;8.370;2024-03-22T06:36:36;12.60;79.90
20487;DHT22;10402;49.012;8.370;2024-03-22T06:39:02;12.60;79.90
20487;DHT22;10402;49.012;8.370;2024-03-22T06:41:31;12.60;79.80
20487;DHT22;10402;49.012;8.370;2024-03-22T06:43:57;12.70;79.90
20487;DHT22;10402;49.012;8.370;2024-03-22T06:46:23;12.60;79.70
20487;DHT22;10402;49.012;8.370;2024-03-22T06:48:48;12.70;79.90
20487;DHT22;10402;49.012;8.370;2024-03-22T06:51:14;12.70;79.80
20487;DHT22;10402;49.012;8.370;2024-03-22T06:53:39;12.70;79.70
20487;DHT22;10402;49.012;8.370;2024-03-22T06:56:05;12.70;79.70
20487;DHT22;10402;49.012;8.370;2024-03-22T06:58:30;12.70;79.70
20487;DHT22;10402;49.012;8.370;2024-03-22T07:00:56;12.80;79.70
20487;DHT22;10402;49.012;8.370;2024-03-22T07:03:22;12.80;79.60
20487;DHT22;10402;49.012;8.370;2024-03-22T07:05:47;12.80;79.40
20487;DHT22;10402;49.012;8.370;2024-03-22T07:08:13;12.90;79.60
20487;DHT22;10402;49.012;8.370;2024-03-22T07:10:39;12.90;79.50
20487;DHT22;10402;49.012;8.370;2024-03-22T07:13:05;12.90;79.60
20487;DHT22;10402;49.012;8.370;2024-03-22T07:15:31;12.90;79.50
20487;DHT22;10402;49.012;8.370;2024-03-22T07:17:58;12.90;79.50
20487;DHT22;10402;49.012;8.370;2024-03-22T07:20:24;13.00;79.60
20487;DHT22;10402;49.012;8.370;2024-03-22T07:22:49;13.00;79.50
20487;DHT22;10402;49.012;8.370;2024-03-22T07:25:15;13.00;79.40
20487;DHT22;10402;49.012;8.370;2024-03-22T07:27:40;13.10;79.50
20487;DHT22;10402;49.012;8.370;2024-03-22T07:30:06;13.10;79.30
20487;DHT22;10402;49.012;8.370;2024-03-22T07:32:32;13.20;79.30
20487;DHT22;10402;49.012;8.370;2024-03-22T07:34:58;13.20;79.20
20487;DHT22;10402;49.012;8.370;2024-03-22T07:37:23;13.20;79.10
20487;DHT22;10402;49.012;8.370;2024-03-22T07:39:49;13.30;79.00
20487;DHT22;10402;49.012;8.370;2024-03-22T07:42:14;13.40;78.90
20487;DHT22;10402;49.012;8.370;2024-03-22T07:44:40;13.40;78.80
20487;DHT22;10402;49.012;8.370;2024-03-22T07:47:06;13.40;78.60
20487;DHT22;10402;49.012;8.370;2024-03-22T07:49:31;13.50;78.60
20487;DHT22;10402;49.012;8.370;2024-03-22T07:51:59;13.50;78.40
20487;DHT22;10402;49.012;8.370;2024-03-22T07:54:25;13.60;78.30
20487;DHT22;10402;49.012;8.370;2024-03-22T07:56:50;13.70;78.00
20487;DHT22;10402;49.012;8.370;2024-03-22T07:59:16;13.70;77.60
20487;DHT22;10402;49.012;8.370;2024-03-22T08:01:41;13.70;77.50
20487;DHT22;10402;49.012;8.370;2024-03-22T08:04:07;13.80;77.70
20487;DHT22;10402;49.012;8.370;2024-03-22T08:06:32;13.80;77.60
20487;DHT22;10402;49.012;8.370;2024-03-22T08:08:58;13.90;77.50
20487;DHT22;10402;49.012;8.370;2024-03-22T08:11:23;13.90;77.60
20487;DHT22;10402;49.012;8.370;2024-03-22T08:13:49;14.00;77.70
20487;DHT22;10402;49.012;8.370;2024-03-22T08:16:14;14.00;77.40
20487;DHT22;10402;49.012;8.370;2024-03-22T08:18:40;14.10;77.40
20487;DHT22;10402;49.012;8.370;2024-03-22T08:21:05;14.20;77.50
20487;DHT22;10402;49.012;8.370;2024-03-22T08:23:31;14.20;77.30
20487;DHT22;10402;49.012;8.370;2024-03-22T08:25:57;14.30;77.30
20487;DHT22;10402;49.012;8.370;2024-03-22T08:28:22;14.40;77.30
20487;DHT22;10402;49.012;8.370;2024-03-22T08:30:48;14.40;77.10
20487;DHT22;10402;49.012;8.370;2024-03-22T08:33:14;14.50;77.00
20487;DHT22;10402;49.012;8.370;2024-03-22T08:35:39;14.60;76.80
20487;DHT22;10402;49.012;8.370;2024-03-22T08:38:05;14.60;76.70
20487;DHT22;10402;49.012;8.370;2024-03-22T08:40:38;14.70;76.70
20487;DHT22;10402;49.012;8.370;2024-03-22T08:43:05;14.80;76.60
20487;DHT22;10402;49.012;8.370;2024-03-22T08:45:32;14.80;76.30
20487;DHT22;10402;49.012;8.370;2024-03-22T08:47:58;14.90;76.30
20487;DHT22;10402;49.012;8.370;2024-03-22T08:50:23;15.00;76.30
20487;DHT22;10402;49.012;8.370;2024-03-22T08:52:50;15.00;76.10
20487;DHT22;10402;49.012;8.370;2024-03-22T08:55:15;15.10;76.60
20487;DHT22;10402;49.012;8.370;2024-03-22T08:57:41;15.10;75.60
20487;DHT22;10402;49.012;8.370;2024-03-22T09:00:07;15.20;75.50
20487;DHT22;10402;49.012;8.370;2024-03-22T09:02:33;15.20;75.40
20487;DHT22;10402;49.012;8.370;2024-03-22T09:04:59;15.30;75.40
20487;DHT22;10402;49.012;8.370;2024-03-22T09:07:25;15.40;75.50
20487;DHT22;10402;49.012;8.370;2024-03-22T09:09:50;15.40;75.10
20487;DHT22;10402;49.012;8.370;2024-03-22T09:12:16;15.50;75.00
20487;DHT22;10402;49.012;8.370;2024-03-22T09:14:41;15.50;74.50
20487;DHT22;10402;49.012;8.370;2024-03-22T09:17:07;15.50;74.10
20487;DHT22;10402;49.012;8.370;2024-03-22T09:19:33;15.60;74.20
20487;DHT22;10402;49.012;8.370;2024-03-22T09:21:58;15.60;74.10
20487;DHT22;10402;49.012;8.370;2024-03-22T09:24:24;15.70;74.20
20487;DHT22;10402;49.012;8.370;2024-03-22T09:26:50;15.70;73.90
20487;DHT22;10402;49.012;8.370;2024-03-22T09:29:15;15.70;73.60
20487;DHT22;10402;49.012;8.370;2024-03-22T09:31:41;15.70;73.50
20487;DHT22;10402;49.012;8.370;2024-03-22T09:34:06;15.80;73.40
20487;DHT22;10402;49.012;8.370;2024-03-22T09:36:32;15.80;73.30
20487;DHT22;10402;49.012;8.370;2024-03-22T09:39:03;15.80;73.10
20487;DHT22;10402;49.012;8.370;2024-03-22T09:41:31;15.80;72.90
20487;DHT22;10402;49.012;8.370;2024-03-22T09:43:58;15.90;73.00
20487;DHT22;10402;49.012;8.370;2024-03-22T09:46:26;15.90;72.70
20487;DHT22;10402;49.012;8.370;2024-03-22T09:48:53;15.90;72.70
20487;DHT22;10402;49.012;8.370;2024-03-22T09:51:19;16.00;72.80
20487;DHT22;10402;49.012;8.370;2024-03-22T09:53:48;16.00;72.50
20487;DHT22;10402;49.012;8.370;2024-03-22T09:56:15;16.00;72.20
20487;DHT22;10402;49.012;8.370;2024-03-22T09:58:44;16.00;72.10
20487;DHT22;10402;49.012;8.370;2024-03-22T10:01:11;16.00;72.10
20487;DHT22;10402;49.012;8.370;2024-03-22T10:03:37;16.10;72.10
20487;DHT22;10402;49.012;8.370;2024-03-22T10:06:03;16.10;71.90
20487;DHT22;10402;49.012;8.370;2024-03-22T10:08:30;16.20;72.00
20487;DHT22;10402;49.012;8.370;2024-03-22T10:10:55;16.20;71.70
20487;DHT22;10402;49.012;8.370;2024-03-22T10:13:21;16.30;71.80
20487;DHT22;10402;49.012;8.370;2024-03-22T10:15:47;16.30;72.50
20487;DHT22;10402;49.012;8.370;2024-03-22T10:18:12;16.40;71.70
20487;DHT22;10402;49.012;8.370;2024-03-22T10:20:40;16.40;71.30
20487;DHT22;10402;49.012;8.370;2024-03-22T10:23:07;16.50;71.00
20487;DHT22;10402;49.012;8.370;2024-03-22T10:25:34;16.50;70.50
20487;DHT22;10402;49.012;8.370;2024-03-22T10:28:00;16.50;70.50
20487;DHT22;10402;49.012;8.370;2024-03-22T10:30:25;16.50;70.40
20487;DHT22;10402;49.012;8.370;2024-03-22T10:32:52;16.50;70.20
20487;DHT22;10402;49.012;8.370;2024-03-22T10:35:18;16.50;69.80
20487;DHT22;10402;49.012;8.370;2024-03-22T10:37:44;16.50;69.70
20487;DHT22;10402;49.012;8.370;2024-03-22T10:40:10;16.50;69.60
20487;DHT22;10402;49.012;8.370;2024-03-22T10:42:38;16.50;69.50
20487;DHT22;10402;49.012;8.370;2024-03-22T10:45:04;16.50;69.40
20487;DHT22;10402;49.012;8.370;2024-03-22T10:47:32;16.60;69.40
20487;DHT22;10402;49.012;8.370;2024-03-22T10:52:45;16.60;69.00
20487;DHT22;10402;49.012;8.370;2024-03-22T10:55:27;16.70;69.10
20487;DHT22;10402;49.012;8.370;2024-03-22T10:57:59;16.70;69.20
20487;DHT22;10402;49.012;8.370;2024-03-22T11:00:34;16.80;69.20
20487;DHT22;10402;49.012;8.370;2024-03-22T11:03:04;16.80;69.20
20487;DHT22;10402;49.012;8.370;2024-03-22T11:05:30;16.90;69.30
20487;DHT22;10402;49.012;8.370;2024-03-22T11:07:59;16.90;69.20
20487;DHT22;10402;49.012;8.370;2024-03-22T11:10:29;17.00;68.90
20487;DHT22;10402;49.012;8.370;2024-03-22T11:12:56;17.00;68.70
20487;DHT22;10402;49.012;8.370;2024-03-22T11:15:25;17.00;68.50
20487;DHT22;10402;49.012;8.370;2024-03-22T11:17:51;17.00;68.50
20487;DHT22;10402;49.012;8.370;2024-03-22T11:20:16;17.00;68.10
20487;DHT22;10402;49.012;8.370;2024-03-22T11:22:42;17.10;68.10
20487;DHT22;10402;49.012;8.370;2024-03-22T11:25:08;17.10;67.90
20487;DHT22;10402;49.012;8.370;2024-03-22T11:27:34;17.10;67.70
20487;DHT22;10402;49.012;8.370;2024-03-22T11:29:59;17.10;67.30
20487;DHT22;10402;49.012;8.370;2024-03-22T11:32:25;17.10;67.50
20487;DHT22;10402;49.012;8.370;2024-03-22T11:34:51;17.10;67.70
20487;DHT22;10402;49.012;8.370;2024-03-22T11:37:17;17.20;67.60
20487;DHT22;10402;49.012;8.370;2024-03-22T11:39:42;17.20;67.50
20487;DHT22;10402;49.012;8.370;2024-03-22T11:42:09;17.30;67.30
20487;DHT22;10402;49.012;8.370;2024-03-22T11:44:36;17.30;67.30
20487;DHT22;10402;49.012;8.370;2024-03-22T11:47:03;17.40;67.10
20487;DHT22;10402;49.012;8.370;2024-03-22T11:49:29;17.40;66.90
20487;DHT22;10402;49.012;8.370;2024-03-22T11:51:56;17.40;66.70
20487;DHT22;10402;49.012;8.370;2024-03-22T11:54:22;17.40;66.60
20487;DHT22;10402;49.012;8.370;2024-03-22T11:56:47;17.50;66.50
20487;DHT22;10402;49.012;8.370;2024-03-22T11:59:13;17.50;65.90
20487;DHT22;10402;49.012;8.370;2024-03-22T12:01:40;17.50;65.90
20487;DHT22;10402;49.012;8.370;2024-03-22T12:04:06;17.60;65.90
20487;DHT22;10402;49.012;8.370;2024-03-22T12:06:34;17.60;65.40
20487;DHT22;10402;49.012;8.370;2024-03-22T12:09:00;17.60;65.30
20487;DHT22;10402;49.012;8.370;2024-03-22T12:11:25;17.70;65.60
20487;DHT22;10402;49.012;8.370;2024-03-22T12:13:51;17.70;65.20
20487;DHT22;10402;49.012;8.370;2024-03-22T12:16:16;17.70;65.10
20487;DHT22;10402;49.012;8.370;2024-03-22T12:18:42;17.70;65.00
20487;DHT22;10402;49.012;8.370;2024-03-22T12:21:07;17.70;64.50
20487;DHT22;10402;49.012;8.370;2024-03-22T12:23:33;17.70;64.50
20487;DHT22;10402;49.012;8.370;2024-03-22T12:25:58;17.70;64.10
20487;DHT22;10402;49.012;8.370;2024-03-22T12:28:24;17.70;63.90
20487;DHT22;10402;49.012;8.370;2024-03-22T12:30:49;17.80;63.80
20487;DHT22;10402;49.012;8.370;2024-03-22T12:33:15;17.80;63.80
20487;DHT22;10402;49.012;8.370;2024-03-22T12:35:41;17.80;62.80
20487;DHT22;10402;49.012;8.370;2024-03-22T12:38:07;17.80;62.20
20487;DHT22;10402;49.012;8.370;2024-03-22T12:40:36;17.90;62.30
20487;DHT22;10402;49.012;8.370;2024-03-22T12:43:03;17.90;61.80
20487;DHT22;10402;49.012;8.370;2024-03-22T12:45:28;17.90;61.30
20487;DHT22;10402;49.012;8.370;2024-03-22T12:47:54;17.90;60.80
20487;DHT22;10402;49.012;8.370;2024-03-22T12:50:19;17.90;60.00
20487;DHT22;10402;49.012;8.370;2024-03-22T12:52:45;17.90;60.10
20487;DHT22;10402;49.012;8.370;2024-03-22T12:55:11;17.90;59.80
20487;DHT22;10402;49.012;8.370;2024-03-22T12:57:36;18.00;59.50
20487;DHT22;10402;49.012;8.370;2024-03-22T13:00:02;18.00;59.40
20487;DHT22;10402;49.012;8.370;2024-03-22T13:02:30;18.00;59.30
20487;DHT22;10402;49.012;8.370;2024-03-22T13:04:57;18.10;59.30
20487;DHT22;10402;49.012;8.370;2024-03-22T13:07:23;18.10;58.80
20487;DHT22;10402;49.012;8.370;2024-03-22T13:09:50;18.10;58.80
20487;DHT22;10402;49.012;8.370;2024-03-22T13:12:15;18.10;58.20
20487;DHT22;10402;49.012;8.370;2024-03-22T13:14:41;18.10;58.00
20487;DHT22;10402;49.012;8.370;2024-03-22T13:17:06;18.10;58.20
20487;DHT22;10402;49.012;8.370;2024-03-22T13:19:34;18.20;58.00
20487;DHT22;10402;49.012;8.370;2024-03-22T13:22:00;18.10;57.90
20487;DHT22;10402;49.012;8.370;2024-03-22T13:24:25;18.10;57.80
20487;DHT22;10402;49.012;8.370;2024-03-22T13:26:51;18.10;57.90
20487;DHT22;10402;49.012;8.370;2024-03-22T13:29:16;18.10;57.60
20487;DHT22;10402;49.012;8.370;2024-03-22T13:31:42;18.10;57.40
20487;DHT22;10402;49.012;8.370;2024-03-22T13:34:08;18.10;57.10
20487;DHT22;10402;49.012;8.370;2024-03-22T13:36:33;18.10;57.30
20487;DHT22;10402;49.012;8.370;2024-03-22T13:38:59;18.10;57.00
20487;DHT22;10402;49.012;8.370;2024-03-22T13:41:25;18.00;56.90
20487;DHT22;10402;49.012;8.370;2024-03-22T13:43:50;18.00;57.30
20487;DHT22;10402;49.012;8.370;2024-03-22T13:46:16;18.00;57.30
20487;DHT22;10402;49.012;8.370;2024-03-22T13:48:43;18.00;57.60
20487;DHT22;10402;49.012;8.370;2024-03-22T13:51:08;18.00;57.60
20487;DHT22;10402;49.012;8.370;2024-03-22T13:53:34;18.00;57.90
20487;DHT22;10402;49.012;8.370;2024-03-22T13:56:00;18.10;58.20
20487;DHT22;10402;49.012;8.370;2024-03-22T13:58:26;18.10;58.10
20487;DHT22;10402;49.012;8.370;2024-03-22T14:00:52;18.10;58.10
20487;DHT22;10402;49.012;8.370;2024-03-22T14:03:18;18.00;58.00
20487;DHT22;10402;49.012;8.370;2024-03-22T14:05:43;18.10;58.10
20487;DHT22;10402;49.012;8.370;2024-03-22T14:08:09;18.10;58.20
20487;DHT22;10402;49.012;8.370;2024-03-22T14:10:34;18.10;58.40
20487;DHT22;10402;49.012;8.370;2024-03-22T14:13:01;18.10;58.40
20487;DHT22;10402;49.012;8.370;2024-03-22T14:15:27;18.10;58.20
20487;DHT22;10402;49.012;8.370;2024-03-22T14:17:57;18.10;58.20
20487;DHT22;10402;49.012;8.370;2024-03-22T14:20:23;18.10;58.10
20487;DHT22;10402;49.012;8.370;2024-03-22T14:22:48;18.20;58.20
20487;DHT22;10402;49.012;8.370;2024-03-22T14:25:14;18.10;58.20
20487;DHT22;10402;49.012;8.370;2024-03-22T14:27:39;18.20;58.30
20487;DHT22;10402;49.012;8.370;2024-03-22T14:30:07;18.20;58.10
20487;DHT22;10402;49.012;8.370;2024-03-22T14:32:35;18.20;58.30
20487;DHT22;10402;49.012;8.370;2024-03-22T14:35:00;18.20;58.20
20487;DHT22;10402;49.012;8.370;2024-03-22T14:37:26;18.20;58.30
20487;DHT22;10402;49.012;8.370;2024-03-22T14:39:52;18.20;58.40
20487;DHT22;10402;49.012;8.370;2024-03-22T14:42:18;18.20;58.30
20487;DHT22;10402;49.012;8.370;2024-03-22T14:44:43;18.20;58.30
20487;DHT22;10402;49.012;8.370;2024-03-22T14:47:10;18.20;58.20
20487;DHT22;10402;49.012;8.370;2024-03-22T14:49:35;18.20;58.40
20487;DHT22;10402;49.012;8.370;2024-03-22T14:52:01;18.30;58.70
20487;DHT22;10402;49.012;8.370;2024-03-22T14:54:27;18.30;59.30
20487;DHT22;10402;49.012;8.370;2024-03-22T14:56:52;18.30;58.60
20487;DHT22;10402;49.012;8.370;2024-03-22T14:59:22;18.30;58.50
20487;DHT22;10402;49.012;8.370;2024-03-22T15:01:47;18.30;58.40
20487;DHT22;10402;49.012;8.370;2024-03-22T15:04:13;18.30;58.50
20487;DHT22;10402;49.012;8.370;2024-03-22T15:06:39;18.30;58.30
20487;DHT22;10402;49.012;8.370;2024-03-22T15:09:04;18.20;58.50
20487;DHT22;10402;49.012;8.370;2024-03-22T15:11:36;18.30;58.60
20487;DHT22;10402;49.012;8.370;2024-03-22T15:14:02;18.30;58.70
20487;DHT22;10402;49.012;8.370;2024-03-22T15:16:28;18.30;58.60
20487;DHT22;10402;49.012;8.370;2024-03-22T15:18:54;18.30;58.60
20487;DHT22;10402;49.012;8.370;2024-03-22T15:21:19;18.30;58.70
20487;DHT22;10402;49.012;8.370;2024-03-22T15:23:46;18.40;58.50
20487;DHT22;10402;49.012;8.370;2024-03-22T15:26:11;18.40;58.40